createdAt,value
2023-11-26T00:02:21.694Z,0.50
2023-11-26T00:04:48.534Z,0.60
2023-11-26T00:07:15.452Z,0.60
2023-11-26T00:09:42.068Z,0.70
2023-11-26T00:12:08.741Z,0.60
2023-11-26T00:14:38.113Z,0.60
2023-11-26T00:17:04.753Z,0.60
2023-11-26T00:19:32.095Z,0.60
2023-11-26T00:21:58.659Z,0.60
2023-11-26T00:24:25.452Z,0.70
2023-11-26T00:26:52.122Z,0.70
2023-11-26T00:29:19.477Z,0.70
2023-11-26T00:31:46.561Z,0.60
2023-11-26T00:34:13.372Z,0.60
2023-11-26T00:36:40.072Z,0.60
2023-11-26T00:39:06.641Z,0.60
2023-11-26T00:41:33.234Z,0.50
2023-11-26T00:43:59.870Z,0.60
2023-11-26T00:46:26.648Z,0.50
2023-11-26T00:48:53.928Z,0.50
2023-11-26T00:51:21.035Z,0.40
2023-11-26T00:53:47.848Z,0.30
2023-11-26T00:56:14.506Z,0.30
2023-11-26T00:58:41.263Z,0.20
2023-11-26T01:01:08.154Z,0.10
2023-11-26T01:03:34.867Z,0.00
2023-11-26T01:06:01.518Z,0.00
2023-11-26T01:08:28.260Z,0.00
2023-11-26T01:10:54.879Z,0.00
2023-11-26T01:13:21.498Z,0.00
2023-11-26T01:15:48.226Z,0.00
2023-11-26T01:18:14.869Z,0.00
2023-11-26T01:20:41.543Z,0.00
2023-11-26T01:23:08.197Z,0.10
2023-11-26T01:25:34.805Z,0.10
2023-11-26T01:28:01.513Z,0.10
2023-11-26T01:30:28.060Z,0.20
2023-11-26T01:32:54.657Z,0.20
2023-11-26T01:35:21.335Z,0.20
2023-11-26T01:37:47.927Z,0.20
2023-11-26T01:40:14.635Z,0.20
2023-11-26T01:42:44.969Z,0.30
2023-11-26T01:45:14.560Z,0.30
2023-11-26T01:47:41.589Z,0.30
2023-11-26T01:50:10.440Z,0.20
2023-11-26T01:52:37.337Z,0.20
2023-11-26T01:55:05.469Z,0.20
2023-11-26T01:57:32.292Z,0.20
2023-11-26T01:59:59.035Z,0.20
2023-11-26T02:02:26.931Z,0.30
2023-11-26T02:04:53.646Z,0.30
2023-11-26T02:07:20.961Z,0.30
2023-11-26T02:09:48.441Z,0.30
2023-11-26T02:12:15.072Z,0.30
2023-11-26T02:14:41.750Z,0.30
2023-11-26T02:17:08.460Z,0.40
2023-11-26T02:19:36.711Z,0.40
2023-11-26T02:22:03.852Z,0.40
2023-11-26T02:24:42.310Z,0.30
2023-11-26T02:27:08.962Z,0.30
2023-11-26T02:29:35.610Z,0.30
2023-11-26T02:32:02.227Z,0.30
2023-11-26T02:34:28.866Z,0.30
2023-11-26T02:36:55.478Z,0.30
2023-11-26T02:39:22.040Z,0.40
2023-11-26T02:41:48.616Z,0.30
2023-11-26T02:44:15.244Z,0.30
2023-11-26T02:46:44.050Z,0.40
2023-11-26T02:49:10.951Z,0.30
2023-11-26T02:51:37.811Z,0.30
2023-11-26T02:54:04.436Z,0.20
2023-11-26T02:56:31.132Z,0.20
2023-11-26T02:58:57.740Z,0.30
2023-11-26T03:01:26.600Z,0.20
2023-11-26T03:03:53.600Z,0.20
2023-11-26T03:06:24.064Z,0.20
2023-11-26T03:09:00.752Z,0.20
2023-11-26T03:11:49.286Z,0.30
2023-11-26T03:14:16.163Z,0.20
2023-11-26T03:16:46.594Z,0.20
2023-11-26T03:19:13.716Z,0.30
2023-11-26T03:21:45.660Z,0.30
2023-11-26T03:24:14.766Z,0.20
2023-11-26T03:26:41.875Z,0.30
2023-11-26T03:29:08.616Z,0.30
2023-11-26T03:31:35.344Z,0.20
2023-11-26T03:34:06.130Z,0.30
2023-11-26T03:36:32.827Z,0.30
2023-11-26T03:38:59.597Z,0.20
2023-11-26T03:41:26.257Z,0.30
2023-11-26T03:43:52.938Z,0.20
2023-11-26T03:46:19.535Z,0.20
2023-11-26T03:48:46.883Z,0.30
2023-11-26T03:51:17.084Z,0.30
2023-11-26T03:53:44.096Z,0.30
2023-11-26T03:56:11.561Z,0.30
2023-11-26T03:58:39.262Z,0.30
2023-11-26T04:01:07.349Z,0.40
2023-11-26T04:03:34.464Z,0.40
2023-11-26T04:06:01.973Z,0.40
2023-11-26T04:08:28.860Z,0.40
2023-11-26T04:10:55.591Z,0.50
2023-11-26T04:13:26.144Z,0.50
2023-11-26T04:15:58.525Z,0.50
2023-11-26T04:18:29.557Z,0.50
2023-11-26T04:20:57.952Z,0.60
2023-11-26T04:23:24.658Z,0.60
2023-11-26T04:25:51.509Z,0.60
2023-11-26T04:28:18.229Z,0.60
2023-11-26T04:30:44.930Z,0.60
2023-11-26T04:33:11.663Z,0.60
2023-11-26T04:35:38.586Z,0.50
2023-11-26T04:38:05.239Z,0.50
2023-11-26T04:40:31.854Z,0.50
2023-11-26T04:42:58.412Z,0.60
2023-11-26T04:45:25.029Z,0.70
2023-11-26T04:47:52.073Z,0.60
2023-11-26T04:50:19.782Z,0.50
2023-11-26T04:52:46.495Z,0.50
2023-11-26T04:55:13.801Z,0.50
2023-11-26T04:57:40.544Z,0.50
2023-11-26T05:00:07.508Z,0.60
2023-11-26T05:02:34.589Z,0.50
2023-11-26T05:05:02.081Z,0.50
2023-11-26T05:07:29.157Z,0.50
2023-11-26T05:09:56.298Z,0.60
2023-11-26T05:12:23.102Z,0.60
2023-11-26T05:14:50.095Z,0.60
2023-11-26T05:17:17.275Z,0.60
2023-11-26T05:19:44.053Z,0.60
2023-11-26T05:22:10.691Z,0.50
2023-11-26T05:24:38.911Z,0.50
2023-11-26T05:27:05.876Z,0.50
2023-11-26T05:29:32.686Z,0.50
2023-11-26T05:31:59.845Z,0.50
2023-11-26T05:34:26.534Z,0.50
2023-11-26T05:36:53.274Z,0.50
2023-11-26T05:39:20.742Z,0.50
2023-11-26T05:41:47.389Z,0.60
2023-11-26T05:44:13.977Z,0.60
2023-11-26T05:46:47.070Z,0.60
2023-11-26T05:49:13.645Z,0.60
2023-11-26T05:51:40.294Z,0.60
2023-11-26T05:54:07.832Z,0.60
2023-11-26T05:56:34.514Z,0.60
2023-11-26T05:59:01.548Z,0.60
2023-11-26T06:01:28.172Z,0.70
2023-11-26T06:03:55.781Z,0.70
2023-11-26T06:06:22.440Z,0.70
2023-11-26T06:08:49.101Z,0.60
2023-11-26T06:11:15.694Z,0.60
2023-11-26T06:13:42.349Z,0.60
2023-11-26T06:16:10.189Z,0.60
2023-11-26T06:18:36.838Z,0.50
2023-11-26T06:21:04.605Z,0.60
2023-11-26T06:23:31.601Z,0.60
2023-11-26T06:25:58.193Z,0.60
2023-11-26T06:28:24.809Z,0.60
2023-11-26T06:30:51.461Z,0.70
2023-11-26T06:33:18.168Z,0.60
2023-11-26T06:35:44.984Z,0.60
2023-11-26T06:38:11.674Z,0.70
2023-11-26T06:40:38.317Z,0.70
2023-11-26T06:43:05.650Z,0.70
2023-11-26T06:45:32.410Z,0.70
2023-11-26T06:48:01.526Z,0.70
2023-11-26T06:50:28.161Z,0.70
2023-11-26T06:52:54.711Z,0.70
2023-11-26T06:55:21.280Z,0.70
2023-11-26T06:57:47.999Z,0.60
2023-11-26T07:00:15.358Z,0.60
2023-11-26T07:02:42.885Z,0.60
2023-11-26T07:05:09.652Z,0.70
2023-11-26T07:07:36.350Z,0.60
2023-11-26T07:10:03.307Z,0.60
2023-11-26T07:12:30.860Z,0.60
2023-11-26T07:14:57.694Z,0.60
2023-11-26T07:17:26.201Z,0.60
2023-11-26T07:19:52.830Z,0.60
2023-11-26T07:22:19.576Z,0.60
2023-11-26T07:24:46.151Z,0.60
2023-11-26T07:27:12.771Z,0.60
2023-11-26T07:29:39.483Z,0.60
2023-11-26T07:32:06.857Z,0.60
2023-11-26T07:34:33.503Z,0.60
2023-11-26T07:37:00.645Z,0.50
2023-11-26T07:39:27.847Z,0.50
2023-11-26T07:41:54.762Z,0.50
2023-11-26T07:44:21.716Z,0.40
2023-11-26T07:46:48.323Z,0.40
2023-11-26T07:49:15.684Z,0.40
2023-11-26T07:51:42.298Z,0.50
2023-11-26T07:54:15.316Z,0.50
2023-11-26T07:56:46.219Z,0.40
2023-11-26T07:59:12.888Z,0.40
2023-11-26T08:01:39.454Z,0.40
2023-11-26T08:04:06.415Z,0.40
2023-11-26T08:06:33.252Z,0.30
2023-11-26T08:09:00.187Z,0.30
2023-11-26T08:11:34.371Z,0.20
2023-11-26T08:14:04.949Z,0.20
2023-11-26T08:16:32.070Z,0.30
2023-11-26T08:19:03.241Z,0.30
2023-11-26T08:21:34.745Z,0.30
2023-11-26T08:24:03.153Z,0.30
2023-11-26T08:26:34.145Z,0.30
2023-11-26T08:29:00.899Z,0.30
2023-11-26T08:31:29.245Z,0.40
2023-11-26T08:33:56.985Z,0.50
2023-11-26T08:36:24.511Z,0.60
2023-11-26T08:38:51.942Z,0.60
2023-11-26T08:41:22.020Z,0.60
2023-11-26T08:43:50.052Z,0.80
2023-11-26T08:46:17.523Z,0.80
2023-11-26T08:48:47.053Z,0.80
2023-11-26T08:51:14.850Z,0.80
2023-11-26T08:53:41.485Z,0.90
2023-11-26T08:56:08.267Z,0.90
2023-11-26T08:58:34.866Z,0.90
2023-11-26T09:01:01.836Z,0.90
2023-11-26T09:03:28.917Z,0.80
2023-11-26T09:05:55.811Z,0.80
2023-11-26T09:08:22.429Z,0.80
2023-11-26T09:10:49.422Z,0.80
2023-11-26T09:13:16.146Z,0.80
2023-11-26T09:15:43.677Z,0.90
2023-11-26T09:18:10.691Z,0.90
2023-11-26T09:20:37.920Z,1.00
2023-11-26T09:23:04.862Z,0.90
2023-11-26T09:25:33.486Z,0.90
2023-11-26T09:28:00.293Z,1.00
2023-11-26T09:30:26.959Z,1.00
2023-11-26T09:32:53.765Z,1.10
2023-11-26T09:35:21.284Z,1.00
2023-11-26T09:37:47.987Z,1.00
2023-11-26T09:40:14.758Z,1.00
2023-11-26T09:42:41.985Z,1.00
2023-11-26T09:45:10.807Z,1.20
2023-11-26T09:47:37.976Z,1.20
2023-11-26T09:50:06.688Z,1.30
2023-11-26T09:52:33.866Z,1.30
2023-11-26T09:55:01.107Z,1.20
2023-11-26T09:57:29.488Z,1.30
2023-11-26T09:59:57.183Z,1.20
2023-11-26T10:02:23.831Z,1.30
2023-11-26T10:04:51.410Z,1.30
2023-11-26T10:07:18.686Z,1.30
2023-11-26T10:10:08.784Z,1.30
2023-11-26T10:12:49.497Z,1.30
2023-11-26T10:15:16.446Z,1.30
2023-11-26T10:17:57.677Z,1.40
2023-11-26T10:20:25.656Z,1.40
2023-11-26T10:22:53.845Z,1.50
2023-11-26T10:25:20.599Z,1.40
2023-11-26T10:27:48.783Z,1.30
2023-11-26T10:30:27.408Z,1.30
2023-11-26T10:33:05.438Z,1.20
2023-11-26T10:35:44.758Z,1.20
2023-11-26T10:38:11.419Z,1.20
2023-11-26T10:40:38.448Z,1.20
2023-11-26T10:43:06.972Z,1.10
2023-11-26T10:45:33.824Z,1.10
2023-11-26T10:48:18.344Z,1.20
2023-11-26T10:50:54.154Z,1.30
2023-11-26T10:53:23.025Z,1.40
2023-11-26T10:55:51.646Z,1.50
2023-11-26T10:58:19.406Z,1.50
2023-11-26T11:00:51.471Z,1.50
2023-11-26T11:03:18.611Z,1.60
2023-11-26T11:05:48.262Z,1.70
2023-11-26T11:08:16.319Z,1.80
2023-11-26T11:11:01.729Z,2.00
2023-11-26T11:13:29.727Z,2.10
2023-11-26T11:15:56.554Z,2.20
2023-11-26T11:18:34.127Z,2.20
2023-11-26T11:21:06.870Z,2.30
2023-11-26T11:23:34.116Z,2.40
2023-11-26T11:26:01.495Z,2.40
2023-11-26T11:28:44.601Z,2.50
2023-11-26T11:31:11.552Z,2.50
2023-11-26T11:34:05.499Z,2.60
2023-11-26T11:36:50.931Z,2.60
2023-11-26T11:39:18.677Z,2.70
2023-11-26T11:41:57.246Z,2.70
2023-11-26T11:44:30.914Z,2.80
2023-11-26T11:47:03.703Z,2.80
2023-11-26T11:49:45.714Z,2.80
2023-11-26T11:52:12.863Z,2.80
2023-11-26T11:54:58.422Z,2.70
2023-11-26T11:57:26.492Z,2.70
2023-11-26T11:59:53.731Z,2.60
2023-11-26T12:02:22.559Z,2.80
2023-11-26T12:04:49.327Z,2.80
2023-11-26T12:07:16.573Z,2.90
2023-11-26T12:09:44.077Z,2.90
2023-11-26T12:12:11.248Z,2.90
2023-11-26T12:14:38.570Z,2.90
2023-11-26T12:17:07.914Z,2.90
2023-11-26T12:19:41.404Z,2.90
2023-11-26T12:22:09.304Z,2.90
2023-11-26T12:24:36.424Z,2.90
2023-11-26T12:27:03.497Z,2.90
2023-11-26T12:29:30.930Z,3.00
2023-11-26T12:31:58.586Z,3.00
2023-11-26T12:34:25.646Z,3.10
2023-11-26T12:36:52.527Z,3.10
2023-11-26T12:39:19.686Z,3.10
2023-11-26T12:41:50.331Z,3.10
2023-11-26T12:44:18.887Z,3.10
2023-11-26T12:46:45.595Z,3.00
2023-11-26T12:49:15.601Z,2.90
2023-11-26T12:51:42.893Z,2.80
2023-11-26T12:54:09.890Z,2.80
2023-11-26T12:56:36.697Z,2.70
2023-11-26T12:59:03.920Z,2.70
2023-11-26T13:01:37.147Z,2.60
2023-11-26T13:04:07.416Z,2.60
2023-11-26T13:06:34.620Z,2.70
2023-11-26T13:09:02.057Z,2.60
2023-11-26T13:11:30.102Z,2.70
2023-11-26T13:14:03.966Z,2.70
2023-11-26T13:16:30.871Z,2.60
2023-11-26T13:18:57.591Z,2.70
2023-11-26T13:21:24.373Z,2.60
2023-11-26T13:23:50.951Z,2.50
2023-11-26T13:26:17.595Z,2.50
2023-11-26T13:28:46.710Z,2.50
2023-11-26T13:31:13.593Z,2.50
2023-11-26T13:33:40.491Z,2.50
2023-11-26T13:36:07.337Z,2.50
2023-11-26T13:38:34.174Z,2.50
2023-11-26T13:41:00.876Z,2.50
2023-11-26T13:43:27.517Z,2.50
2023-11-26T13:45:54.132Z,2.50
2023-11-26T13:48:25.237Z,2.50
2023-11-26T13:50:55.622Z,2.50
2023-11-26T13:53:24.306Z,2.60
2023-11-26T13:55:52.593Z,2.60
2023-11-26T13:58:19.336Z,2.60
2023-11-26T14:00:46.210Z,2.60
2023-11-26T14:03:13.023Z,2.60
2023-11-26T14:05:40.408Z,2.50
2023-11-26T14:08:09.706Z,2.50
2023-11-26T14:10:36.599Z,2.50
2023-11-26T14:13:04.126Z,2.40
2023-11-26T14:15:30.925Z,2.50
2023-11-26T14:17:58.478Z,2.50
2023-11-26T14:20:25.490Z,2.50
2023-11-26T14:22:54.881Z,2.40
2023-11-26T14:25:21.566Z,2.40
2023-11-26T14:27:49.374Z,2.30
2023-11-26T14:30:17.872Z,2.20
2023-11-26T14:32:45.771Z,2.20
2023-11-26T14:35:12.826Z,2.20
2023-11-26T14:37:39.691Z,2.10
2023-11-26T14:40:14.390Z,2.10
2023-11-26T14:42:44.696Z,2.10
2023-11-26T14:45:12.045Z,2.10
2023-11-26T14:47:39.476Z,2.00
2023-11-26T14:50:06.385Z,2.00
2023-11-26T14:52:34.875Z,2.10
2023-11-26T14:55:04.959Z,2.10
2023-11-26T14:57:31.669Z,2.10
2023-11-26T14:59:58.778Z,2.10
2023-11-26T15:02:25.486Z,2.10
2023-11-26T15:04:52.348Z,2.10
2023-11-26T15:07:22.151Z,2.00
2023-11-26T15:09:49.074Z,2.00
2023-11-26T15:12:15.770Z,2.00
2023-11-26T15:14:42.464Z,2.00
2023-11-26T15:17:09.862Z,2.00
2023-11-26T15:19:37.620Z,2.00
2023-11-26T15:22:07.539Z,2.00
2023-11-26T15:24:36.484Z,2.00
2023-11-26T15:27:03.360Z,2.00
2023-11-26T15:29:30.018Z,1.90
2023-11-26T15:31:56.620Z,1.90
2023-11-26T15:34:23.338Z,1.90
2023-11-26T15:36:50.140Z,1.90
2023-11-26T15:39:21.371Z,1.90
2023-11-26T15:41:47.960Z,1.90
2023-11-26T15:44:15.146Z,1.90
2023-11-26T15:46:41.922Z,1.90
2023-11-26T15:49:10.486Z,1.90
2023-11-26T15:51:47.519Z,1.90
2023-11-26T15:54:14.155Z,1.90
2023-11-26T15:56:40.979Z,1.90
2023-11-26T15:59:08.222Z,1.90
2023-11-26T16:01:35.107Z,1.80
2023-11-26T16:04:02.173Z,1.70
2023-11-26T16:06:29.930Z,1.70
2023-11-26T16:09:00.824Z,1.70
2023-11-26T16:11:27.751Z,1.80
2023-11-26T16:13:55.939Z,1.70
2023-11-26T16:16:22.854Z,1.70
2023-11-26T16:18:49.998Z,1.70
2023-11-26T16:21:17.360Z,1.60
2023-11-26T16:23:44.681Z,1.70
2023-11-26T16:26:11.537Z,1.60
2023-11-26T16:28:38.967Z,1.60
2023-11-26T16:31:06.923Z,1.60
2023-11-26T16:33:50.128Z,1.70
2023-11-26T16:36:17.578Z,1.70
2023-11-26T16:38:44.285Z,1.60
2023-11-26T16:41:14.678Z,1.60
2023-11-26T16:43:43.074Z,1.60
2023-11-26T16:46:09.856Z,1.70
2023-11-26T16:48:37.354Z,1.60
2023-11-26T16:51:04.486Z,1.70
2023-11-26T16:53:34.395Z,1.70
2023-11-26T16:56:01.034Z,1.70
2023-11-26T16:58:27.769Z,1.70
2023-11-26T17:00:54.679Z,1.70
2023-11-26T17:03:21.524Z,1.70
2023-11-26T17:05:53.023Z,1.70
2023-11-26T17:08:20.560Z,1.60
2023-11-26T17:10:47.695Z,1.70
2023-11-26T17:13:14.281Z,1.70
2023-11-26T17:15:41.643Z,1.70
2023-11-26T17:18:08.536Z,1.60
2023-11-26T17:20:35.166Z,1.60
2023-11-26T17:23:01.828Z,1.60
2023-11-26T17:25:32.457Z,1.60
2023-11-26T17:27:59.951Z,1.60
2023-11-26T17:30:29.600Z,1.60
2023-11-26T17:32:56.323Z,1.70
2023-11-26T17:35:22.969Z,1.70
2023-11-26T17:37:49.632Z,1.70
2023-11-26T17:40:16.419Z,1.80
2023-11-26T17:42:43.104Z,1.80
2023-11-26T17:45:09.960Z,1.90
2023-11-26T17:47:37.066Z,1.80
2023-11-26T17:50:03.963Z,1.80
2023-11-26T17:52:30.544Z,1.80
2023-11-26T17:54:57.167Z,1.90
2023-11-26T17:57:23.811Z,1.80
2023-11-26T17:59:50.421Z,1.80
2023-11-26T18:02:17.246Z,1.80
2023-11-26T18:04:44.128Z,1.80
2023-11-26T18:07:12.775Z,1.80
2023-11-26T18:09:39.592Z,1.80
2023-11-26T18:12:06.529Z,2.00
2023-11-26T18:14:33.857Z,2.00
2023-11-26T18:17:03.256Z,2.00
2023-11-26T18:19:32.622Z,2.00
2023-11-26T18:21:59.665Z,2.00
2023-11-26T18:24:27.395Z,2.00
2023-11-26T18:26:53.987Z,2.00
2023-11-26T18:29:20.545Z,2.00
2023-11-26T18:31:48.097Z,2.00
2023-11-26T18:34:16.296Z,2.00
2023-11-26T18:36:43.122Z,2.10
2023-11-26T18:39:13.612Z,2.10
2023-11-26T18:41:40.484Z,2.10
2023-11-26T18:44:08.574Z,2.10
2023-11-26T18:46:36.771Z,2.10
2023-11-26T18:49:04.002Z,2.10
2023-11-26T18:51:31.138Z,2.10
2023-11-26T18:53:57.878Z,2.00
2023-11-26T18:56:24.496Z,2.10
2023-11-26T18:58:51.277Z,2.10
2023-11-26T19:01:18.069Z,2.10
2023-11-26T19:03:45.449Z,2.20
2023-11-26T19:06:16.307Z,2.10
2023-11-26T19:08:43.289Z,2.10
2023-11-26T19:11:13.302Z,2.20
2023-11-26T19:13:40.841Z,2.20
2023-11-26T19:16:11.875Z,2.20
2023-11-26T19:18:38.586Z,2.30
2023-11-26T19:21:05.235Z,2.20
2023-11-26T19:23:31.907Z,2.30
2023-11-26T19:25:58.520Z,2.30
2023-11-26T19:28:25.310Z,2.30
2023-11-26T19:30:51.934Z,2.40
2023-11-26T19:33:18.694Z,2.30
2023-11-26T19:35:47.523Z,2.30
2023-11-26T19:38:14.105Z,2.30
2023-11-26T19:40:41.320Z,2.30
2023-11-26T19:43:09.028Z,2.30
2023-11-26T19:45:35.665Z,2.40
2023-11-26T19:48:02.304Z,2.40
2023-11-26T19:50:31.034Z,2.40
2023-11-26T19:52:57.662Z,2.40
2023-11-26T19:55:24.423Z,2.40
2023-11-26T19:57:52.071Z,2.40
2023-11-26T20:00:18.942Z,2.40
2023-11-26T20:02:45.830Z,2.40
2023-11-26T20:05:15.552Z,2.30
2023-11-26T20:07:49.001Z,2.30
2023-11-26T20:10:15.644Z,2.40
2023-11-26T20:12:42.347Z,2.40
2023-11-26T20:15:09.832Z,2.40
2023-11-26T20:17:36.490Z,2.40
2023-11-26T20:20:03.758Z,2.40
2023-11-26T20:22:30.445Z,2.40
2023-11-26T20:24:57.134Z,2.40
2023-11-26T20:27:23.841Z,2.40
2023-11-26T20:29:50.407Z,2.40
2023-11-26T20:32:17.209Z,2.40
2023-11-26T20:34:43.865Z,2.40
2023-11-26T20:37:10.524Z,2.40
2023-11-26T20:39:37.131Z,2.40
2023-11-26T20:42:03.873Z,2.40
2023-11-26T20:44:30.454Z,2.40
2023-11-26T20:46:58.175Z,2.40
2023-11-26T20:49:25.855Z,2.50
2023-11-26T20:51:52.679Z,2.40
2023-11-26T20:54:19.304Z,2.50
2023-11-26T20:56:46.349Z,2.50
2023-11-26T20:59:13.050Z,2.40
2023-11-26T21:01:39.699Z,2.40
2023-11-26T21:04:08.211Z,2.40
2023-11-26T21:06:35.455Z,2.40
2023-11-26T21:09:02.187Z,2.40
2023-11-26T21:11:29.007Z,2.50
2023-11-26T21:13:55.765Z,2.40
2023-11-26T21:16:22.539Z,2.40
2023-11-26T21:18:49.583Z,2.40
2023-11-26T21:21:16.421Z,2.50
2023-11-26T21:23:43.482Z,2.50
2023-11-26T21:26:11.839Z,2.50
2023-11-26T21:28:39.135Z,2.50
2023-11-26T21:31:06.031Z,2.50
2023-11-26T21:33:32.754Z,2.50
2023-11-26T21:36:02.664Z,2.50
2023-11-26T21:38:29.520Z,2.50
2023-11-26T21:41:04.679Z,2.50
2023-11-26T21:43:34.217Z,2.50
2023-11-26T21:46:00.991Z,2.50
2023-11-26T21:48:28.353Z,2.50
2023-11-26T21:50:55.053Z,2.50
2023-11-26T21:53:21.624Z,2.40
2023-11-26T21:55:50.242Z,2.40
2023-11-26T21:58:16.945Z,2.50
2023-11-26T22:00:43.654Z,2.50
2023-11-26T22:03:10.452Z,2.50
2023-11-26T22:05:37.082Z,2.40
2023-11-26T22:08:04.052Z,2.40
2023-11-26T22:10:30.959Z,2.40
2023-11-26T22:12:58.211Z,2.40
2023-11-26T22:15:24.844Z,2.40
2023-11-26T22:17:51.504Z,2.40
2023-11-26T22:20:18.129Z,2.40
2023-11-26T22:22:44.729Z,2.40
2023-11-26T22:25:11.390Z,2.40
2023-11-26T22:27:38.171Z,2.40
2023-11-26T22:30:07.384Z,2.40
2023-11-26T22:32:35.484Z,2.40
2023-11-26T22:35:02.140Z,2.40
2023-11-26T22:37:28.761Z,2.40
2023-11-26T22:39:55.439Z,2.40
2023-11-26T22:42:22.107Z,2.40
2023-11-26T22:44:48.780Z,2.40
2023-11-26T22:47:15.440Z,2.40
2023-11-26T22:49:42.286Z,2.40
2023-11-26T22:52:09.246Z,2.40
2023-11-26T22:54:35.947Z,2.50
2023-11-26T22:57:02.532Z,2.50
2023-11-26T22:59:29.116Z,2.50
2023-11-26T23:01:55.893Z,2.50
2023-11-26T23:04:22.526Z,2.50
2023-11-26T23:06:51.884Z,2.50
2023-11-26T23:09:19.027Z,2.50
2023-11-26T23:11:46.875Z,2.40
2023-11-26T23:14:13.547Z,2.50
2023-11-26T23:16:40.185Z,2.50
2023-11-26T23:19:06.822Z,2.50
2023-11-26T23:21:33.414Z,2.40
2023-11-26T23:24:00.649Z,2.40
2023-11-26T23:26:27.805Z,2.40
2023-11-26T23:28:54.849Z,2.40
2023-11-26T23:31:22.205Z,2.40
2023-11-26T23:33:49.335Z,2.40
2023-11-26T23:36:16.310Z,2.50
2023-11-26T23:38:44.234Z,2.50
2023-11-26T23:41:12.421Z,2.50
2023-11-26T23:43:40.002Z,2.50
2023-11-26T23:46:06.934Z,2.50
2023-11-26T23:48:33.591Z,2.50
2023-11-26T23:51:00.222Z,2.50
2023-11-26T23:53:26.778Z,2.40
2023-11-26T23:55:53.368Z,2.40
2023-11-26T23:58:19.980Z,2.40
